Weather reports worldwide

Advertisment
Cairngorm, United Kingdom (3065): temperature & dewpoint: 08.11.2018 16:00:00 - 14.11.2018 16:00:00 (GMT)Cairngorm, United Kingdom (3065): wind speed & gusts: 08.11.2018 16:00:00 - 14.11.2018 16:00:00 (GMT)Cairngorm, United Kingdom (3065): wind direction: 08.11.2018 16:00:00 - 14.11.2018 16:00:00 (GMT)
Date & Time tt [°C] td [°C] ff [km/h] ff [kn] fx [km/h] fx [kn] dd
14.11.2018 16:00:00 - - - - - - -
14.11.2018 15:00:00 7,0 6,9 61 33 104 56 SSW
14.11.2018 14:00:00 6,8 6,8 70 38 102 55 SSW
14.11.2018 13:00:00 6,9 6,9 67 36 98 53 SW
14.11.2018 12:00:00 6,6 6,6 68 37 98 53 SSW
14.11.2018 11:00:00 6,1 6,1 63 34 87 47 SSW
14.11.2018 10:00:00 5,3 5,3 63 34 81 44 SSW
14.11.2018 09:00:00 4,4 4,4 65 35 89 48 S
14.11.2018 08:00:00 4,3 4,3 70 38 106 57 S
14.11.2018 07:00:00 4,2 4,2 87 47 109 59 S
14.11.2018 06:00:00 3,9 3,9 93 50 124 67 S
14.11.2018 05:00:00 3,8 3,8 89 48 128 69 S
14.11.2018 04:00:00 3,5 3,5 93 50 120 65 S
14.11.2018 03:00:00 3,5 3,5 98 53 124 67 S
14.11.2018 02:00:00 3,2 3,1 93 50 131 71 S
14.11.2018 01:00:00 2,7 2,7 96 52 119 64 S
14.11.2018 00:00:00 2,6 2,6 83 45 106 57 S
13.11.2018 23:00:00 2,2 2,2 78 42 98 53 S
13.11.2018 22:00:00 1,6 1,6 74 40 106 57 SSW
13.11.2018 21:00:00 0,6 0,6 83 45 107 58 SSW
13.11.2018 20:00:00 0,4 0,4 70 38 107 58 SSW
13.11.2018 19:00:00 0,2 0,2 89 48 104 56 SSW
13.11.2018 18:00:00 0,4 0,4 68 37 93 50 SSW
13.11.2018 17:00:00 0,1 0,1 63 34 91 49 SW
13.11.2018 16:00:00 0,3 0,3 65 35 81 44 SW
13.11.2018 15:00:00 0,6 0,6 63 34 89 48 WSW
13.11.2018 14:00:00 0,9 0,9 55 30 87 47 W
13.11.2018 13:00:00 1,0 1,0 70 38 91 49 W
13.11.2018 12:00:00 1,6 1,6 54 29 87 47 W
13.11.2018 11:00:00 1,5 1,5 59 32 78 42 W
13.11.2018 10:00:00 1,2 1,2 55 30 78 42 W
13.11.2018 09:00:00 1,0 1,0 48 26 70 38 W
13.11.2018 08:00:00 0,8 0,8 46 25 57 31 W
13.11.2018 07:00:00 0,5 0,5 34 18 50 27 W
13.11.2018 06:00:00 0,2 0,2 34 18 63 34 WSW
13.11.2018 05:00:00 0,7 0,7 42 23 63 34 WSW
13.11.2018 04:00:00 0,2 0,2 46 25 61 33 WSW
13.11.2018 03:00:00 0,0 0,0 46 25 55 30 WSW
13.11.2018 02:00:00 0,2 0,2 37 20 57 31 SW
13.11.2018 01:00:00 0,2 0,2 39 21 61 33 SSW
13.11.2018 00:00:00 0,0 0,0 50 27 59 32 SSW
12.11.2018 23:00:00 0,6 0,6 48 26 76 41 S
12.11.2018 22:00:00 0,4 0,4 57 31 76 41 S
12.11.2018 21:00:00 0,6 0,6 59 32 81 44 S
12.11.2018 20:00:00 0,7 0,7 65 35 80 43 S
12.11.2018 19:00:00 0,9 0,9 68 37 87 47 S
12.11.2018 18:00:00 1,0 1,0 70 38 96 52 S
12.11.2018 17:00:00 1,1 1,1 74 40 93 50 S
12.11.2018 16:00:00 1,4 1,4 70 38 89 48 S
12.11.2018 15:00:00 1,3 1,3 67 36 91 49 S
12.11.2018 14:00:00 1,1 1,1 70 38 93 50 S
12.11.2018 13:00:00 1,1 1,1 72 39 100 54 S
12.11.2018 12:00:00 1,2 1,2 74 40 100 54 S
12.11.2018 11:00:00 1,2 1,2 76 41 106 57 S
12.11.2018 10:00:00 0,9 0,9 83 45 98 53 S
12.11.2018 09:00:00 0,9 0,9 70 38 102 55 S
12.11.2018 08:00:00 1,0 1,0 78 42 98 53 S
12.11.2018 07:00:00 1,1 1,1 76 41 98 53 S
12.11.2018 06:00:00 0,9 0,9 72 39 91 49 S
12.11.2018 05:00:00 0,8 0,8 61 33 91 49 S
12.11.2018 04:00:00 0,8 0,7 70 38 98 53 S
12.11.2018 03:00:00 0,5 0,5 72 39 100 54 S
12.11.2018 02:00:00 0,2 0,2 76 41 111 60 S
12.11.2018 01:00:00 0,1 0,1 87 47 104 56 S
12.11.2018 00:00:00 0,1 0,1 85 46 96 52 S
11.11.2018 23:00:00 -0,4 -0,4 72 39 96 52 S
11.11.2018 22:00:00 -0,7 -0,7 68 37 83 45 S
11.11.2018 21:00:00 -1,3 -1,3 59 32 76 41 SSW
11.11.2018 20:00:00 -1,4 -1,4 50 27 65 35 SSW
11.11.2018 19:00:00 -1,2 -1,2 48 26 65 35 SSW
11.11.2018 18:00:00 -0,4 -0,4 24 13 55 30 SSW
11.11.2018 17:00:00 -0,3 -0,3 39 21 63 34 SSE
11.11.2018 16:00:00 -0,6 -0,6 50 27 76 41 S
11.11.2018 15:00:00 0,1 0,1 59 32 70 38 SSE
11.11.2018 14:00:00 0,3 0,3 42 23 61 33 SSE
11.11.2018 13:00:00 0,1 0,1 52 28 68 37 SSE
11.11.2018 12:00:00 0,1 0,1 52 28 72 39 SSE
11.11.2018 11:00:00 -0,3 -0,3 61 33 80 43 SSE
11.11.2018 10:00:00 -0,5 -0,5 54 29 68 37 SSE
11.11.2018 09:00:00 -0,7 -0,7 42 23 65 35 S
11.11.2018 08:00:00 -1,2 -1,2 39 21 59 32 SSE
11.11.2018 07:00:00 -1,5 -1,5 42 23 54 29 S
11.11.2018 06:00:00 -1,6 -1,6 34 18 - - SSW
11.11.2018 05:00:00 -1,7 -1,7 34 18 - - S
11.11.2018 04:00:00 -1,7 -1,7 24 13 - - S
11.11.2018 03:00:00 -1,5 -1,5 29 16 - - S
11.11.2018 02:00:00 -1,0 -1,0 34 18 57 31 S
11.11.2018 01:00:00 -0,8 -0,8 50 27 76 41 S
11.11.2018 00:00:00 -0,3 -0,3 55 30 72 39 S
10.11.2018 23:00:00 -0,3 -0,3 57 31 65 35 S
10.11.2018 22:00:00 -0,7 -0,7 39 21 59 32 SSE
10.11.2018 21:00:00 -0,8 -0,8 48 26 68 37 SE
10.11.2018 20:00:00 0,1 0,1 54 29 67 36 SE
10.11.2018 19:00:00 0,1 0,1 55 30 76 41 SSE
10.11.2018 18:00:00 -0,1 -0,1 67 36 80 43 S
10.11.2018 17:00:00 0,1 0,1 63 34 87 47 S
10.11.2018 16:00:00 -0,1 -0,1 70 38 96 52 S
10.11.2018 15:00:00 -0,6 -0,6 72 39 89 48 S
10.11.2018 14:00:00 -0,6 -0,6 65 35 85 46 S
10.11.2018 13:00:00 -0,8 -0,8 65 35 94 51 S
10.11.2018 12:00:00 -0,3 -0,3 65 35 93 50 S
10.11.2018 11:00:00 -0,6 -0,6 74 40 98 53 SSW
10.11.2018 10:00:00 -0,7 -0,7 68 37 83 45 SSW
10.11.2018 09:00:00 0,3 0,3 57 31 91 49 SSW
10.11.2018 08:00:00 0,4 0,4 72 39 96 52 S
10.11.2018 07:00:00 0,4 0,4 83 45 104 56 S
10.11.2018 06:00:00 0,4 0,4 81 44 104 56 S
10.11.2018 05:00:00 0,9 0,9 81 44 102 55 S
10.11.2018 04:00:00 1,3 1,3 81 44 109 59 S
10.11.2018 03:00:00 1,7 1,7 85 46 104 56 S
10.11.2018 02:00:00 1,9 1,9 76 41 113 61 SSE
10.11.2018 01:00:00 1,4 1,4 98 53 139 75 SE
10.11.2018 00:00:00 0,7 0,7 126 68 150 81 SE
09.11.2018 23:00:00 0,3 0,3 113 61 172 93 SSE
09.11.2018 22:00:00 1,0 1,0 144 78 183 99 SE
09.11.2018 21:00:00 0,9 0,9 144 78 180 97 SE
09.11.2018 20:00:00 1,9 1,9 154 83 193 104 SE
09.11.2018 19:00:00 1,8 1,8 163 88 193 104 SE
09.11.2018 18:00:00 1,7 1,7 169 91 200 108 SE
09.11.2018 17:00:00 1,5 1,5 159 86 183 99 SE
09.11.2018 16:00:00 1,2 1,2 137 74 169 91 SE
09.11.2018 15:00:00 1,0 1,0 137 74 169 91 SSE
09.11.2018 14:00:00 0,6 0,6 131 71 161 87 SE
09.11.2018 13:00:00 0,4 0,4 117 63 148 80 SSE
09.11.2018 12:00:00 0,3 0,3 106 57 144 78 SE
09.11.2018 11:00:00 0,3 0,3 102 55 128 69 SSE
09.11.2018 10:00:00 0,4 0,4 109 59 139 75 SSE
09.11.2018 09:00:00 0,3 0,3 107 58 135 73 SSE
09.11.2018 08:00:00 0,1 0,1 93 50 122 66 SSE
09.11.2018 07:00:00 0,2 0,2 94 51 124 67 SSE
09.11.2018 06:00:00 0,3 0,3 94 51 128 69 SSE
09.11.2018 05:00:00 0,2 0,2 93 50 128 69 SSE
09.11.2018 04:00:00 0,5 0,5 107 58 139 75 SSE
09.11.2018 03:00:00 0,5 0,5 102 55 139 75 SSE
09.11.2018 02:00:00 0,6 0,6 93 50 139 75 SSE
09.11.2018 01:00:00 0,9 0,9 98 53 128 69 SSE
09.11.2018 00:00:00 0,9 0,9 85 46 117 63 S
08.11.2018 23:00:00 0,8 0,8 89 48 124 67 SSE
08.11.2018 22:00:00 0,5 0,5 87 47 106 57 SSE
08.11.2018 21:00:00 -0,1 -0,1 91 49 107 58 SSE
08.11.2018 20:00:00 -0,3 -0,3 93 50 111 60 SSE
08.11.2018 19:00:00 -0,1 -0,1 94 51 111 60 SSE
08.11.2018 18:00:00 0,1 0,1 83 45 102 55 SSE
08.11.2018 17:00:00 -0,2 -0,2 67 36 104 56 SSE
08.11.2018 16:00:00 -0,5 -0,5 81 44 100 54 S

tt = temperature
td = dewpoint
ff = wind speed
fx = gusts
dd = wind direction

Next stations